windsock image

Welcome to Bigfield Strip.

anemometer image
     

 Help for dials.  
 
Local Met:

Wind:   
10 Min average:  
277 ° / 0.1 kts (1.7)
277° / 0.3

Temperature:  
8.8°C C
Dew Point:  
6.3°C C
QNH:  
Trend:  
1012.1 mb mb
-0.6mb/hr
BigField Strip. This image updates approximately every minute, it can have a two minute delay.  
 

Humidity:  
84 %
Sunrise:   03:54z
Sunset:   20:08z
Updated:  
  UTC
 
   More met info, trends, radar, history etc. available here   

LUTON Metar   EGGW 282320Z 26010KT CAVOK 10/06 Q1013
 
  TAF   2015/05/28 18:15 TAF EGGW 281659Z 2818/2918 28014KT 9999 SCT040 BECMG 2821/2824 22009KT TEMPO 2906/2913 24015G25KT 7000 RA BKN012 PROB30 TEMPO 2910/2913 27020G30KT 3000 +RA BKN008 BKN015CB BECMG 2911/2914 29012KT PROB40 TEMPO 2913/2918 30015G25KT 7000 SHRA
 
BENSON Metar   EGUB 282250Z 16005KT CAVOK 07/05 Q1013 BLU NOSIG
 
  TAF   2015/05/28 21:03 TAF TAF EGUB 281918Z 2821/2901 25010KT CAVOK
 
Big Field view 1 icon   Big Field view 2 icon   Big Field view 3 icon   Chart AL3a in PDF icon   Chart AL3a in Word icon

WARNING:
This information is provided by the Airstrip unofficial weather station, DO NOT depend on the data provided here for any purpose.
This page is updated for latest Metars & TAF's every 5 minutes. Refresh the browser to check for the lastest.
Page designed for a minimum browser size of 1024x768.
© Copyright 2015 BigField Strip. This page auto generated 23:51 UTC - 28/05/2015   Contact Us
Valid HTML 4.01 Transitional     Windows uptime: 3 Days 21 Hours 19 Minutes 23 Seconds    WD started: 02:37 25/05/15    Free memory: 1481MB     Valid CSS!